sensor_id;sensor_type;location;lat;lon;timestamp;temperature;humidity
31731;DHT22;18310;55.586;12.286;2023-04-01T02:38:58;6.40;71.40
31731;DHT22;18310;55.586;12.286;2023-04-01T08:08:31;7.40;62.50
31731;DHT22;18310;55.586;12.286;2023-04-01T08:15:13;7.40;62.10
31731;DHT22;18310;55.586;12.286;2023-04-01T08:18:31;7.50;61.00
31731;DHT22;18310;55.586;12.286;2023-04-01T08:21:43;7.40;62.30
31731;DHT22;18310;55.586;12.286;2023-04-01T08:24:54;7.60;61.50
31731;DHT22;18310;55.586;12.286;2023-04-01T09:25:26;8.30;55.80
31731;DHT22;18310;55.586;12.286;2023-04-01T11:56:11;10.10;48.70
31731;DHT22;18310;55.586;12.286;2023-04-01T11:59:47;10.00;48.80
31731;DHT22;18310;55.586;12.286;2023-04-01T12:03:21;10.00;49.10
31731;DHT22;18310;55.586;12.286;2023-04-01T13:02:01;11.40;44.70
31731;DHT22;18310;55.586;12.286;2023-04-01T13:05:30;11.20;42.10
31731;DHT22;18310;55.586;12.286;2023-04-01T13:09:06;11.10;41.10
31731;DHT22;18310;55.586;12.286;2023-04-01T13:12:34;15.30;42.50
31731;DHT22;18310;55.586;12.286;2023-04-01T13:15:45;11.20;39.90
31731;DHT22;18310;55.586;12.286;2023-04-01T13:18:58;11.10;40.50
31731;DHT22;18310;55.586;12.286;2023-04-01T13:22:12;8.10;39.90
31731;DHT22;18310;55.586;12.286;2023-04-01T13:25:26;11.10;41.60
31731;DHT22;18310;55.586;12.286;2023-04-01T13:28:39;11.20;41.90
31731;DHT22;18310;55.586;12.286;2023-04-01T13:31:56;10.10;41.40
31731;DHT22;18310;55.586;12.286;2023-04-01T13:35:24;8.80;40.80
31731;DHT22;18310;55.586;12.286;2023-04-01T13:39:02;8.50;40.50
31731;DHT22;18310;55.586;12.286;2023-04-01T13:42:35;11.00;42.20
31731;DHT22;18310;55.586;12.286;2023-04-01T13:46:05;10.90;42.00
31731;DHT22;18310;55.586;12.286;2023-04-01T13:49:41;10.90;42.10
31731;DHT22;18310;55.586;12.286;2023-04-01T13:53:21;10.90;42.10
31731;DHT22;18310;55.586;12.286;2023-04-01T13:56:50;10.90;41.60
31731;DHT22;18310;55.586;12.286;2023-04-01T14:00:19;10.90;41.70
31731;DHT22;18310;55.586;12.286;2023-04-01T14:03:43;10.80;42.10
31731;DHT22;18310;55.586;12.286;2023-04-01T14:07:11;12.60;43.10
31731;DHT22;18310;55.586;12.286;2023-04-01T14:10:30;11.50;41.60
31731;DHT22;18310;55.586;12.286;2023-04-01T14:13:52;10.90;41.00
31731;DHT22;18310;55.586;12.286;2023-04-01T14:17:30;10.90;42.00
31731;DHT22;18310;55.586;12.286;2023-04-01T14:20:52;10.90;41.60
31731;DHT22;18310;55.586;12.286;2023-04-01T14:24:20;10.90;41.10
31731;DHT22;18310;55.586;12.286;2023-04-01T14:27:44;10.90;41.20
31731;DHT22;18310;55.586;12.286;2023-04-01T14:31:34;11.10;41.90
31731;DHT22;18310;55.586;12.286;2023-04-01T14:34:55;11.10;41.50
31731;DHT22;18310;55.586;12.286;2023-04-01T14:38:35;10.90;40.90
31731;DHT22;18310;55.586;12.286;2023-04-01T14:41:54;11.00;41.20
31731;DHT22;18310;55.586;12.286;2023-04-01T14:49:23;10.90;41.80
31731;DHT22;18310;55.586;12.286;2023-04-01T14:52:36;11.00;41.90
31731;DHT22;18310;55.586;12.286;2023-04-01T14:55:49;11.00;41.40
31731;DHT22;18310;55.586;12.286;2023-04-01T14:58:57;11.20;41.60
31731;DHT22;18310;55.586;12.286;2023-04-01T15:02:12;11.00;41.50
31731;DHT22;18310;55.586;12.286;2023-04-01T15:05:48;11.10;41.10
31731;DHT22;18310;55.586;12.286;2023-04-01T15:08:56;11.00;41.10
31731;DHT22;18310;55.586;12.286;2023-04-01T15:12:17;11.00;41.80
31731;DHT22;18310;55.586;12.286;2023-04-01T15:15:44;12.60;42.70
31731;DHT22;18310;55.586;12.286;2023-04-01T15:19:14;11.00;41.60
31731;DHT22;18310;55.586;12.286;2023-04-01T15:22:40;11.00;41.70
31731;DHT22;18310;55.586;12.286;2023-04-01T15:26:04;11.30;41.40
31731;DHT22;18310;55.586;12.286;2023-04-01T15:29:32;11.00;42.00
31731;DHT22;18310;55.586;12.286;2023-04-01T15:33:00;11.00;42.10
31731;DHT22;18310;55.586;12.286;2023-04-01T15:36:29;11.00;41.60
31731;DHT22;18310;55.586;12.286;2023-04-01T15:39:54;11.00;41.80
31731;DHT22;18310;55.586;12.286;2023-04-01T15:43:13;11.10;41.70
31731;DHT22;18310;55.586;12.286;2023-04-01T15:46:43;10.90;42.00
31731;DHT22;18310;55.586;12.286;2023-04-01T15:49:55;10.90;41.60
31731;DHT22;18310;55.586;12.286;2023-04-01T15:53:13;10.90;41.70
31731;DHT22;18310;55.586;12.286;2023-04-01T15:56:40;8.40;40.80
31731;DHT22;18310;55.586;12.286;2023-04-01T16:00:10;10.80;41.80
31731;DHT22;18310;55.586;12.286;2023-04-01T16:03:31;9.80;41.30
31731;DHT22;18310;55.586;12.286;2023-04-01T16:07:02;10.60;42.10
31731;DHT22;18310;55.586;12.286;2023-04-01T16:10:40;10.70;42.40
31731;DHT22;18310;55.586;12.286;2023-04-01T16:14:03;10.80;42.80
31731;DHT22;18310;55.586;12.286;2023-04-01T16:17:30;10.80;42.90
31731;DHT22;18310;55.586;12.286;2023-04-01T16:21:01;11.90;43.70
31731;DHT22;18310;55.586;12.286;2023-04-01T16:24:17;10.80;42.80
31731;DHT22;18310;55.586;12.286;2023-04-01T16:27:35;10.80;42.40
31731;DHT22;18310;55.586;12.286;2023-04-01T16:30:46;10.80;42.50
